createdAt,value
2023-02-14T03:06:57.530Z,1018.78
2023-02-14T03:11:57.194Z,1018.71
2023-02-14T03:16:57.237Z,1018.67
2023-02-14T03:21:57.452Z,1018.70
2023-02-14T03:26:57.096Z,1018.69
2023-02-14T03:31:57.211Z,1018.70
2023-02-14T03:36:57.042Z,1018.69
2023-02-14T03:41:56.739Z,1018.75
2023-02-14T03:46:56.722Z,1018.65
2023-02-14T03:51:56.707Z,1018.62
2023-02-14T03:59:39.783Z,1018.71
2023-02-14T04:04:39.705Z,1018.76
2023-02-14T04:09:39.524Z,1018.86
2023-02-14T04:14:39.490Z,1018.79
2023-02-14T04:19:39.390Z,1018.76
2023-02-14T04:35:02.239Z,1018.66
2023-02-14T04:40:01.977Z,1018.67
2023-02-14T04:47:50.977Z,1018.52
2023-02-14T06:48:05.172Z,1018.70
2023-02-14T07:12:45.850Z,1018.58
2023-02-14T07:17:44.097Z,1018.55
2023-02-14T07:22:46.789Z,1018.40
2023-02-14T07:27:44.839Z,1018.35
2023-02-14T08:29:25.137Z,1017.96
2023-02-14T15:17:26.280Z,1014.60
2023-02-14T15:55:15.292Z,1014.38
2023-02-14T16:59:53.801Z,1014.74
2023-02-14T17:04:53.716Z,1014.66
2023-02-14T17:11:20.669Z,1014.67
2023-02-14T17:16:20.351Z,1014.64
2023-02-14T17:21:20.366Z,1014.64
2023-02-14T17:26:33.232Z,1014.63
2023-02-14T17:31:20.319Z,1014.73
2023-02-14T17:36:20.559Z,1014.73
2023-02-14T17:44:05.419Z,1014.70
2023-02-14T17:49:05.547Z,1014.70
2023-02-14T17:54:05.423Z,1014.71
2023-02-14T17:59:05.194Z,1014.62
2023-02-14T18:04:05.184Z,1014.59
2023-02-14T18:09:05.173Z,1014.60
2023-02-14T18:14:05.640Z,1014.53
2023-02-14T18:27:04.290Z,1014.67
2023-02-14T18:33:23.720Z,1014.64
2023-02-14T19:01:25.692Z,1014.37
